createdAt,value
2023-05-05T00:02:12.501Z,11.88
2023-05-05T00:05:10.528Z,11.48
2023-05-05T00:08:08.420Z,10.00
2023-05-05T00:11:06.341Z,12.15
2023-05-05T00:14:04.120Z,11.38
2023-05-05T00:17:02.047Z,9.45
2023-05-05T00:20:00.186Z,10.73
2023-05-05T00:22:58.127Z,10.43
2023-05-05T00:25:55.950Z,9.75
2023-05-05T00:28:53.899Z,11.32
2023-05-05T00:31:53.429Z,11.43
2023-05-05T00:34:51.448Z,12.75
2023-05-05T00:37:49.827Z,10.10
2023-05-05T00:40:47.789Z,11.07
2023-05-05T00:43:45.640Z,12.48
2023-05-05T00:46:44.656Z,10.60
2023-05-05T00:49:42.667Z,12.85
2023-05-05T00:52:40.845Z,12.77
2023-05-05T00:55:38.688Z,11.85
2023-05-05T00:58:37.578Z,11.80
2023-05-05T01:01:35.420Z,11.98
2023-05-05T01:04:33.293Z,12.18
2023-05-05T01:07:54.918Z,13.23
2023-05-05T01:10:59.985Z,13.57
2023-05-05T01:14:18.582Z,11.90
2023-05-05T01:17:21.556Z,13.18
2023-05-05T01:20:28.807Z,11.80
2023-05-05T01:23:56.348Z,10.48
2023-05-05T01:27:20.465Z,12.25
2023-05-05T01:30:41.804Z,11.45
2023-05-05T01:33:48.495Z,10.73
2023-05-05T01:36:55.505Z,11.77
2023-05-05T01:39:59.436Z,14.27
2023-05-05T01:42:59.175Z,12.43
2023-05-05T01:45:58.508Z,11.30
2023-05-05T01:48:57.778Z,9.57
2023-05-05T01:51:58.779Z,10.40
2023-05-05T01:54:58.610Z,13.15
2023-05-05T01:57:59.219Z,10.82
2023-05-05T02:00:59.244Z,9.80
2023-05-05T02:03:58.767Z,12.85
2023-05-05T02:06:58.751Z,9.38
2023-05-05T02:09:57.196Z,12.60
2023-05-05T02:12:55.326Z,15.05
2023-05-05T02:15:53.975Z,12.30
2023-05-05T02:18:53.042Z,13.43
2023-05-05T02:21:50.928Z,12.48
2023-05-05T02:24:48.853Z,9.85
2023-05-05T02:27:48.888Z,13.57
2023-05-05T02:30:55.391Z,16.23
2023-05-05T02:33:56.686Z,11.27
2023-05-05T02:36:58.685Z,8.88
2023-05-05T02:40:02.634Z,9.48
2023-05-05T02:43:05.972Z,13.90
2023-05-05T02:49:04.110Z,8.35
2023-05-05T02:52:02.025Z,10.90
2023-05-05T02:55:00.914Z,11.68
2023-05-05T02:58:07.205Z,8.90
2023-05-05T03:01:23.416Z,9.45
2023-05-05T03:04:29.083Z,12.18
2023-05-05T03:07:32.221Z,10.27
2023-05-05T03:10:35.610Z,10.57
2023-05-05T03:16:36.108Z,15.52
2023-05-05T03:19:36.010Z,9.48
2023-05-05T03:22:37.904Z,10.05
2023-05-05T03:25:51.185Z,9.98
2023-05-05T03:28:49.033Z,10.93
2023-05-05T03:31:47.138Z,14.27
2023-05-05T03:34:44.951Z,13.20
2023-05-05T03:37:42.955Z,13.80
2023-05-05T03:40:44.506Z,14.68
2023-05-05T03:43:43.047Z,13.40
2023-05-05T03:46:40.980Z,13.13
2023-05-05T03:49:38.922Z,13.55
2023-05-05T03:52:36.746Z,12.48
2023-05-05T03:55:34.737Z,17.90
2023-05-05T03:58:32.856Z,15.90
2023-05-05T04:01:32.100Z,11.77
2023-05-05T04:04:29.972Z,11.55
2023-05-05T04:07:28.097Z,13.30
2023-05-05T04:10:26.308Z,13.25
2023-05-05T04:13:24.778Z,9.93
2023-05-05T04:16:22.829Z,14.35
2023-05-05T04:19:20.901Z,13.30
2023-05-05T04:22:19.171Z,14.38
2023-05-05T04:25:17.294Z,15.80
2023-05-05T04:28:15.150Z,13.98
2023-05-05T04:31:13.132Z,14.13
2023-05-05T04:34:11.118Z,15.68
2023-05-05T04:37:09.166Z,14.02
2023-05-05T04:40:08.716Z,11.32
2023-05-05T04:43:07.653Z,17.42
2023-05-05T04:46:05.743Z,14.57
2023-05-05T04:49:05.706Z,14.60
2023-05-05T04:52:03.608Z,14.25
2023-05-05T04:55:01.863Z,15.88
2023-05-05T04:57:59.715Z,14.55
2023-05-05T05:00:57.927Z,13.32
2023-05-05T05:03:56.044Z,14.38
2023-05-05T05:06:56.227Z,20.08
2023-05-05T05:09:57.381Z,16.93
2023-05-05T05:12:56.066Z,16.58
2023-05-05T05:15:54.413Z,15.45
2023-05-05T05:18:52.296Z,14.95
2023-05-05T05:21:50.069Z,20.38
2023-05-05T05:24:48.042Z,16.52
2023-05-05T05:27:50.128Z,18.48
2023-05-05T05:30:53.394Z,15.05
2023-05-05T05:33:51.572Z,14.60
2023-05-05T05:36:49.521Z,17.52
2023-05-05T05:39:55.431Z,15.90
2023-05-05T05:42:53.368Z,19.25
2023-05-05T05:45:51.360Z,16.90
2023-05-05T05:48:49.327Z,14.23
2023-05-05T05:51:47.128Z,17.17
2023-05-05T05:54:45.041Z,17.13
2023-05-05T05:57:42.806Z,18.90
2023-05-05T06:00:40.714Z,16.65
2023-05-05T06:03:38.654Z,18.40
2023-05-05T06:06:36.620Z,16.33
2023-05-05T06:09:34.585Z,19.15
2023-05-05T06:12:33.895Z,17.30
2023-05-05T06:15:31.825Z,17.20
2023-05-05T06:18:29.983Z,21.25
2023-05-05T06:21:29.535Z,17.55
2023-05-05T06:24:28.060Z,18.73
2023-05-05T06:27:25.971Z,18.23
2023-05-05T06:30:23.899Z,18.65
2023-05-05T06:33:21.730Z,20.10
2023-05-05T06:36:19.672Z,18.13
2023-05-05T06:39:17.638Z,20.58
2023-05-05T06:42:15.509Z,17.92
2023-05-05T06:45:13.368Z,18.67
2023-05-05T06:48:11.345Z,20.05
2023-05-05T06:51:10.514Z,16.33
2023-05-05T06:54:08.532Z,16.02
2023-05-05T06:57:06.438Z,14.48
2023-05-05T07:00:06.526Z,17.23
2023-05-05T07:03:05.094Z,13.82
2023-05-05T07:06:03.072Z,18.08
2023-05-05T07:09:00.893Z,18.48
2023-05-05T07:11:58.858Z,20.25
2023-05-05T07:14:56.813Z,17.98
2023-05-05T07:17:54.773Z,13.55
2023-05-05T07:20:52.570Z,19.38
2023-05-05T07:23:50.507Z,18.10
2023-05-05T07:26:48.351Z,23.65
2023-05-05T07:29:46.253Z,17.05
2023-05-05T07:32:44.032Z,17.67
2023-05-05T07:35:41.975Z,21.88
2023-05-05T07:38:39.963Z,17.23
2023-05-05T07:41:37.923Z,18.23
2023-05-05T07:44:35.889Z,16.67
2023-05-05T07:47:33.914Z,21.48
2023-05-05T07:50:31.774Z,20.85
2023-05-05T07:53:30.305Z,16.60
2023-05-05T07:56:28.139Z,18.55
2023-05-05T07:59:26.062Z,17.65
2023-05-05T08:02:23.974Z,17.00
2023-05-05T08:05:22.010Z,17.13
2023-05-05T08:08:25.180Z,20.20
2023-05-05T08:11:23.326Z,19.17
2023-05-05T08:14:21.157Z,14.88
2023-05-05T08:17:19.092Z,18.85
2023-05-05T08:20:18.038Z,16.42
2023-05-05T08:23:16.022Z,15.23
2023-05-05T08:26:14.536Z,15.68
2023-05-05T08:29:12.480Z,20.05
2023-05-05T08:32:10.296Z,19.23
2023-05-05T08:35:08.832Z,12.18
2023-05-05T08:38:06.949Z,14.68
2023-05-05T08:41:04.974Z,15.82
2023-05-05T08:44:03.838Z,14.52
2023-05-05T08:47:02.906Z,18.45
2023-05-05T08:50:02.368Z,12.90
2023-05-05T08:53:19.637Z,15.50
2023-05-05T08:56:18.859Z,15.10
2023-05-05T08:59:17.723Z,15.95
2023-05-05T09:02:16.913Z,16.85
2023-05-05T09:05:15.209Z,13.88
2023-05-05T09:08:13.095Z,15.25
2023-05-05T09:11:11.131Z,18.70
2023-05-05T09:14:08.894Z,20.58
2023-05-05T09:17:06.938Z,14.63
2023-05-05T09:20:10.880Z,15.60
2023-05-05T09:23:11.813Z,17.52
2023-05-05T09:26:09.703Z,16.98
2023-05-05T09:29:07.952Z,18.88
2023-05-05T09:32:09.215Z,13.05
2023-05-05T09:35:07.555Z,20.05
2023-05-05T09:38:12.949Z,17.25
2023-05-05T09:41:10.872Z,16.83
2023-05-05T09:44:09.472Z,17.52
2023-05-05T09:47:22.085Z,17.27
2023-05-05T09:50:24.195Z,16.35
2023-05-05T09:53:22.847Z,22.02
2023-05-05T09:56:21.323Z,16.70
2023-05-05T09:59:20.068Z,15.60
2023-05-05T10:02:18.282Z,17.70
2023-05-05T10:05:18.669Z,15.95
2023-05-05T10:08:17.293Z,13.43
2023-05-05T10:11:15.306Z,14.07
2023-05-05T10:14:18.077Z,13.50
2023-05-05T10:17:16.982Z,16.20
2023-05-05T10:20:16.310Z,16.13
2023-05-05T10:23:19.144Z,16.83
2023-05-05T10:26:20.174Z,14.82
2023-05-05T10:29:32.258Z,14.20
2023-05-05T10:33:00.460Z,14.38
2023-05-05T10:36:08.296Z,20.25
2023-05-05T10:39:09.875Z,16.13
2023-05-05T10:42:07.920Z,15.38
2023-05-05T10:45:07.591Z,19.48
2023-05-05T10:48:11.273Z,14.25
2023-05-05T10:51:39.380Z,16.70
2023-05-05T10:54:56.268Z,13.45
2023-05-05T10:57:54.915Z,12.63
2023-05-05T11:00:53.013Z,13.43
2023-05-05T11:03:51.107Z,16.45
2023-05-05T11:07:24.924Z,15.85
2023-05-05T11:10:23.873Z,14.15
2023-05-05T11:13:22.082Z,14.55
2023-05-05T11:16:48.481Z,21.45
2023-05-05T11:19:48.405Z,16.58
2023-05-05T11:23:21.612Z,13.35
2023-05-05T11:26:40.974Z,14.20
2023-05-05T11:30:09.769Z,14.40
2023-05-05T11:33:39.288Z,17.75
2023-05-05T11:36:40.654Z,14.90
2023-05-05T11:39:52.104Z,13.63
2023-05-05T11:42:50.622Z,13.60
2023-05-05T11:45:48.515Z,13.63
2023-05-05T11:48:50.949Z,13.88
2023-05-05T11:51:57.832Z,15.25
2023-05-05T11:55:01.722Z,13.75
2023-05-05T11:57:59.629Z,15.88
2023-05-05T12:52:22.480Z,17.42
2023-05-05T12:55:20.431Z,13.90
2023-05-05T12:58:18.489Z,12.20
2023-05-05T13:01:16.646Z,14.02
2023-05-05T13:04:15.846Z,15.27
2023-05-05T13:07:16.146Z,13.25
2023-05-05T13:10:14.038Z,10.57
2023-05-05T13:13:11.770Z,12.23
2023-05-05T13:16:09.634Z,12.43
2023-05-05T13:19:07.453Z,21.67
2023-05-05T13:22:05.316Z,14.88
2023-05-05T13:25:03.102Z,12.52
2023-05-05T13:28:00.976Z,18.08
2023-05-05T13:30:59.172Z,15.27
2023-05-05T13:33:58.821Z,11.95
2023-05-05T13:36:56.842Z,19.52
2023-05-05T13:39:59.912Z,14.65
2023-05-05T13:42:57.636Z,9.93
2023-05-05T13:46:02.828Z,12.38
2023-05-05T13:49:06.748Z,16.38
2023-05-05T13:52:04.711Z,10.88
2023-05-05T13:55:02.404Z,12.40
2023-05-05T13:58:00.270Z,13.27
2023-05-05T14:00:57.973Z,11.05
2023-05-05T14:03:57.291Z,11.98
2023-05-05T14:06:55.370Z,13.52
2023-05-05T14:09:53.316Z,11.95
2023-05-05T14:12:51.057Z,12.48
2023-05-05T14:15:50.837Z,12.85
2023-05-05T14:18:48.545Z,13.07
2023-05-05T14:21:46.580Z,13.55
2023-05-05T14:24:44.479Z,13.52
2023-05-05T14:27:42.309Z,10.43
2023-05-05T14:30:40.821Z,13.57
2023-05-05T14:33:38.651Z,14.27
2023-05-05T14:36:36.453Z,13.30
2023-05-05T14:39:34.265Z,17.38
2023-05-05T14:42:31.931Z,17.33
2023-05-05T14:45:30.217Z,16.55
2023-05-05T14:48:28.974Z,15.65
2023-05-05T14:51:26.837Z,16.15
2023-05-05T14:54:28.425Z,16.90
2023-05-05T14:57:26.909Z,16.13
2023-05-05T15:00:26.946Z,22.50
2023-05-05T15:03:24.937Z,18.65
2023-05-05T15:06:22.697Z,19.42
2023-05-05T15:09:20.972Z,18.77
2023-05-05T15:12:18.688Z,16.52
2023-05-05T15:15:16.740Z,17.90
2023-05-05T15:18:14.462Z,19.90
2023-05-05T15:21:12.552Z,20.63
2023-05-05T15:24:10.280Z,13.68
2023-05-05T15:27:08.100Z,17.20
2023-05-05T15:30:06.583Z,20.13
2023-05-05T15:33:04.483Z,19.40
2023-05-05T15:36:02.687Z,19.80
2023-05-05T15:39:00.596Z,23.45
2023-05-05T15:41:58.792Z,15.75
2023-05-05T15:44:56.727Z,18.65
2023-05-05T15:47:54.653Z,17.48
2023-05-05T15:50:52.520Z,15.70
2023-05-05T15:53:50.276Z,18.35
2023-05-05T15:56:48.161Z,15.63
2023-05-05T15:59:45.945Z,15.48
2023-05-05T16:02:44.711Z,16.23
2023-05-05T16:05:42.523Z,14.20
2023-05-05T16:08:40.932Z,13.23
2023-05-05T16:11:38.744Z,13.55
2023-05-05T16:14:36.557Z,9.98
2023-05-05T16:17:34.400Z,14.43
2023-05-05T16:20:32.400Z,18.75
2023-05-05T16:23:30.950Z,14.50
2023-05-05T16:26:28.786Z,12.20
2023-05-05T16:29:26.531Z,12.18
2023-05-05T16:32:24.322Z,12.43
2023-05-05T16:35:23.699Z,13.45
2023-05-05T16:38:21.491Z,15.00
2023-05-05T16:41:19.259Z,11.73
2023-05-05T16:44:17.522Z,10.30
2023-05-05T16:47:15.225Z,13.20
2023-05-05T16:50:13.321Z,9.68
2023-05-05T16:53:11.307Z,11.27
2023-05-05T16:56:13.529Z,11.45
2023-05-05T16:59:11.736Z,14.73
2023-05-05T17:02:09.607Z,11.50
2023-05-05T17:05:07.818Z,16.30
2023-05-05T17:08:06.114Z,13.65
2023-05-05T17:11:04.401Z,14.05
2023-05-05T17:14:02.378Z,12.02
2023-05-05T17:17:00.117Z,13.77
2023-05-05T17:19:58.032Z,13.70
2023-05-05T17:22:56.013Z,10.15
2023-05-05T17:25:53.856Z,14.25
2023-05-05T17:28:51.625Z,12.98
2023-05-05T17:31:49.897Z,11.68
2023-05-05T17:34:47.627Z,12.05
2023-05-05T17:37:45.740Z,12.98
2023-05-05T17:40:43.584Z,11.13
2023-05-05T17:43:41.546Z,12.13
2023-05-05T17:46:39.876Z,10.85
2023-05-05T17:49:37.663Z,14.20
2023-05-05T17:52:35.343Z,11.52
2023-05-05T17:55:33.181Z,10.55
2023-05-05T17:58:30.893Z,12.25
2023-05-05T18:01:28.764Z,9.75
2023-05-05T18:04:26.555Z,9.73
2023-05-05T18:07:24.386Z,14.65
2023-05-05T18:10:22.112Z,14.93
2023-05-05T18:13:21.717Z,11.23
2023-05-05T18:16:19.534Z,15.40
2023-05-05T18:19:19.040Z,10.43
2023-05-05T18:22:16.868Z,11.98
2023-05-05T18:25:14.967Z,16.80
2023-05-05T18:28:12.979Z,13.88
2023-05-05T18:31:10.835Z,10.13
2023-05-05T18:34:08.623Z,10.85
2023-05-05T18:37:06.488Z,12.95
2023-05-05T18:40:04.395Z,12.27
2023-05-05T18:43:02.448Z,11.05
2023-05-05T18:46:00.254Z,12.30
2023-05-05T18:48:58.117Z,11.25
2023-05-05T18:51:56.857Z,11.60
2023-05-05T18:54:54.658Z,11.68
2023-05-05T18:57:53.473Z,12.20
2023-05-05T19:00:51.704Z,11.85
2023-05-05T19:03:49.669Z,13.20
2023-05-05T19:06:47.545Z,12.07
2023-05-05T19:09:45.265Z,18.35
2023-05-05T19:12:43.087Z,13.60
2023-05-05T19:15:40.895Z,11.85
2023-05-05T19:18:38.806Z,13.05
2023-05-05T19:21:36.831Z,15.25
2023-05-05T19:24:36.099Z,17.88
2023-05-05T19:27:34.737Z,12.65
2023-05-05T19:30:32.810Z,12.55
2023-05-05T19:33:30.561Z,10.30
2023-05-05T19:36:28.851Z,14.75
2023-05-05T19:39:26.593Z,11.85
2023-05-05T19:42:24.581Z,13.85
2023-05-05T19:45:22.307Z,13.00
2023-05-05T19:48:20.186Z,14.27
2023-05-05T19:51:17.864Z,15.23
2023-05-05T19:54:16.603Z,11.82
2023-05-05T19:57:14.347Z,11.75
2023-05-05T20:00:13.048Z,11.35
2023-05-05T20:03:11.519Z,14.13
2023-05-05T20:06:09.386Z,10.30
2023-05-05T20:09:07.236Z,10.10
2023-05-05T20:12:05.336Z,11.40
2023-05-05T20:15:03.602Z,13.30
2023-05-05T20:18:01.518Z,12.02
2023-05-05T20:20:59.527Z,12.55
2023-05-05T20:23:57.355Z,12.10
2023-05-05T20:26:55.061Z,10.95
2023-05-05T20:29:53.173Z,15.27
2023-05-05T20:32:51.334Z,11.00
2023-05-05T20:35:49.193Z,11.40
2023-05-05T20:38:46.901Z,12.98
2023-05-05T20:41:46.787Z,10.98
2023-05-05T20:44:44.521Z,11.75
2023-05-05T20:47:42.386Z,10.18
2023-05-05T20:50:41.431Z,11.50
2023-05-05T20:53:39.377Z,12.02
2023-05-05T20:56:37.160Z,8.60
2023-05-05T20:59:35.042Z,11.45
2023-05-05T21:02:33.044Z,12.25
2023-05-05T21:05:32.135Z,10.18
2023-05-05T21:08:31.838Z,10.32
2023-05-05T21:11:29.694Z,8.93
2023-05-05T21:14:27.463Z,13.10
2023-05-05T21:17:26.259Z,11.18
2023-05-05T21:20:24.242Z,12.55
2023-05-05T21:23:22.181Z,12.20
2023-05-05T21:26:19.935Z,8.85
2023-05-05T21:29:17.700Z,12.07
2023-05-05T21:32:15.440Z,11.73
2023-05-05T21:35:13.341Z,9.27
2023-05-05T21:38:11.899Z,10.85
2023-05-05T21:41:09.707Z,11.77
2023-05-05T21:44:07.406Z,14.13
2023-05-05T21:47:06.781Z,12.15
2023-05-05T21:50:04.700Z,13.15
2023-05-05T21:53:02.537Z,13.60
2023-05-05T21:56:00.262Z,15.00
2023-05-05T21:58:58.085Z,11.63
2023-05-05T22:01:55.919Z,11.68
2023-05-05T22:04:54.281Z,11.95
2023-05-05T22:07:52.283Z,13.13
2023-05-05T22:10:50.512Z,8.85
2023-05-05T22:13:48.529Z,10.90
2023-05-05T22:16:46.663Z,12.32
2023-05-05T22:19:44.626Z,10.50
2023-05-05T22:22:42.736Z,10.60
2023-05-05T22:25:40.940Z,10.57
2023-05-05T22:28:39.322Z,14.98
2023-05-05T22:31:38.215Z,14.85
2023-05-05T22:34:36.486Z,16.33
2023-05-05T22:37:34.755Z,14.25
2023-05-05T22:40:32.847Z,12.02
2023-05-05T22:43:30.809Z,13.38
2023-05-05T22:46:28.938Z,8.45
2023-05-05T22:49:30.251Z,9.23
2023-05-05T22:52:29.600Z,10.60
2023-05-05T22:55:27.875Z,10.80
2023-05-05T22:58:26.485Z,10.60
2023-05-05T23:01:24.557Z,10.80
2023-05-05T23:04:22.714Z,12.07
2023-05-05T23:07:20.888Z,11.10
2023-05-05T23:10:19.115Z,13.50
2023-05-05T23:13:17.150Z,12.25
2023-05-05T23:16:15.295Z,15.02
2023-05-05T23:19:14.342Z,10.48
2023-05-05T23:22:12.377Z,12.60
2023-05-05T23:25:10.937Z,9.57
2023-05-05T23:28:09.344Z,10.35
2023-05-05T23:31:07.344Z,11.63
2023-05-05T23:34:05.661Z,10.93
2023-05-05T23:37:05.894Z,10.80
2023-05-05T23:40:04.644Z,12.40
2023-05-05T23:43:02.574Z,12.32
2023-05-05T23:46:00.657Z,11.27
2023-05-05T23:48:58.640Z,9.98
2023-05-05T23:51:56.758Z,11.18
2023-05-05T23:54:54.714Z,9.63
2023-05-05T23:57:53.953Z,15.07
